sensor_id;sensor_type;location;lat;lon;timestamp;temperature;humidity
7384;DHT22;3733;47.994;8.820;2023-03-23T00:01:24;8.90;82.00
7384;DHT22;3733;47.994;8.820;2023-03-23T00:03:53;8.90;82.30
7384;DHT22;3733;47.994;8.820;2023-03-23T00:06:22;8.90;83.10
7384;DHT22;3733;47.994;8.820;2023-03-23T00:08:50;8.90;84.00
7384;DHT22;3733;47.994;8.820;2023-03-23T00:11:23;8.90;84.20
7384;DHT22;3733;47.994;8.820;2023-03-23T00:13:50;8.90;84.50
7384;DHT22;3733;47.994;8.820;2023-03-23T00:16:23;8.90;84.40
7384;DHT22;3733;47.994;8.820;2023-03-23T00:19:00;8.90;85.40
7384;DHT22;3733;47.994;8.820;2023-03-23T00:21:32;8.90;86.20
7384;DHT22;3733;47.994;8.820;2023-03-23T00:24:06;8.90;86.30
7384;DHT22;3733;47.994;8.820;2023-03-23T00:26:33;8.90;85.80
7384;DHT22;3733;47.994;8.820;2023-03-23T00:29:00;8.90;85.30
7384;DHT22;3733;47.994;8.820;2023-03-23T00:31:27;8.90;84.60
7384;DHT22;3733;47.994;8.820;2023-03-23T00:33:57;8.90;84.50
7384;DHT22;3733;47.994;8.820;2023-03-23T00:36:24;8.90;83.70
7384;DHT22;3733;47.994;8.820;2023-03-23T00:38:49;8.90;83.70
7384;DHT22;3733;47.994;8.820;2023-03-23T00:41:15;8.90;84.00
7384;DHT22;3733;47.994;8.820;2023-03-23T00:43:41;8.90;84.10
7384;DHT22;3733;47.994;8.820;2023-03-23T00:46:06;8.90;83.50
7384;DHT22;3733;47.994;8.820;2023-03-23T00:48:38;8.90;83.50
7384;DHT22;3733;47.994;8.820;2023-03-23T00:51:10;8.80;83.90
7384;DHT22;3733;47.994;8.820;2023-03-23T00:53:35;8.80;84.30
7384;DHT22;3733;47.994;8.820;2023-03-23T00:56:01;8.80;85.30
7384;DHT22;3733;47.994;8.820;2023-03-23T00:58:27;8.80;85.20
7384;DHT22;3733;47.994;8.820;2023-03-23T01:00:52;8.80;85.70
7384;DHT22;3733;47.994;8.820;2023-03-23T01:03:18;8.80;86.00
7384;DHT22;3733;47.994;8.820;2023-03-23T01:05:45;8.80;86.10
7384;DHT22;3733;47.994;8.820;2023-03-23T01:08:13;8.70;86.80
7384;DHT22;3733;47.994;8.820;2023-03-23T01:10:39;8.70;87.70
7384;DHT22;3733;47.994;8.820;2023-03-23T01:13:07;8.70;88.60
7384;DHT22;3733;47.994;8.820;2023-03-23T01:15:33;8.70;88.90
7384;DHT22;3733;47.994;8.820;2023-03-23T01:17:58;8.70;89.20
7384;DHT22;3733;47.994;8.820;2023-03-23T01:20:25;8.70;89.10
7384;DHT22;3733;47.994;8.820;2023-03-23T01:22:52;8.70;89.70
7384;DHT22;3733;47.994;8.820;2023-03-23T01:25:18;8.70;89.50
7384;DHT22;3733;47.994;8.820;2023-03-23T01:27:44;8.70;89.30
7384;DHT22;3733;47.994;8.820;2023-03-23T01:30:11;8.70;88.50
7384;DHT22;3733;47.994;8.820;2023-03-23T01:32:37;8.80;87.00
7384;DHT22;3733;47.994;8.820;2023-03-23T01:35:03;8.70;86.20
7384;DHT22;3733;47.994;8.820;2023-03-23T01:37:30;8.70;86.60
7384;DHT22;3733;47.994;8.820;2023-03-23T01:39:56;8.70;87.70
7384;DHT22;3733;47.994;8.820;2023-03-23T01:42:24;8.70;89.00
7384;DHT22;3733;47.994;8.820;2023-03-23T01:47:17;8.70;89.30
7384;DHT22;3733;47.994;8.820;2023-03-23T01:49:46;8.70;88.70
7384;DHT22;3733;47.994;8.820;2023-03-23T01:52:23;8.70;88.40
7384;DHT22;3733;47.994;8.820;2023-03-23T01:54:52;8.60;88.50
7384;DHT22;3733;47.994;8.820;2023-03-23T01:57:21;8.60;88.80
7384;DHT22;3733;47.994;8.820;2023-03-23T01:59:51;8.60;89.40
7384;DHT22;3733;47.994;8.820;2023-03-23T02:02:20;8.60;89.20
7384;DHT22;3733;47.994;8.820;2023-03-23T02:04:46;8.60;89.50
7384;DHT22;3733;47.994;8.820;2023-03-23T02:07:14;8.60;89.80
7384;DHT22;3733;47.994;8.820;2023-03-23T02:09:41;8.60;90.30
7384;DHT22;3733;47.994;8.820;2023-03-23T02:12:06;8.60;90.70
7384;DHT22;3733;47.994;8.820;2023-03-23T02:14:32;8.60;91.00
7384;DHT22;3733;47.994;8.820;2023-03-23T02:17:31;8.60;91.10
7384;DHT22;3733;47.994;8.820;2023-03-23T02:20:16;8.60;90.80
7384;DHT22;3733;47.994;8.820;2023-03-23T02:36:42;8.60;90.30
7384;DHT22;3733;47.994;8.820;2023-03-23T02:39:20;8.60;90.70
7384;DHT22;3733;47.994;8.820;2023-03-23T02:42:00;8.60;91.40
7384;DHT22;3733;47.994;8.820;2023-03-23T02:44:29;8.60;91.40
7384;DHT22;3733;47.994;8.820;2023-03-23T02:46:57;8.60;91.30
7384;DHT22;3733;47.994;8.820;2023-03-23T02:49:25;8.60;91.50
7384;DHT22;3733;47.994;8.820;2023-03-23T02:51:53;8.60;91.70
7384;DHT22;3733;47.994;8.820;2023-03-23T02:54:22;8.60;92.20
7384;DHT22;3733;47.994;8.820;2023-03-23T02:56:51;8.60;92.80
7384;DHT22;3733;47.994;8.820;2023-03-23T02:59:18;8.60;92.10
7384;DHT22;3733;47.994;8.820;2023-03-23T03:04:18;8.60;92.90
7384;DHT22;3733;47.994;8.820;2023-03-23T03:07:21;8.60;93.20
7384;DHT22;3733;47.994;8.820;2023-03-23T03:09:59;8.60;92.60
7384;DHT22;3733;47.994;8.820;2023-03-23T03:15:21;8.60;92.00
7384;DHT22;3733;47.994;8.820;2023-03-23T03:17:56;8.60;92.60
7384;DHT22;3733;47.994;8.820;2023-03-23T03:20:25;8.60;93.60
7384;DHT22;3733;47.994;8.820;2023-03-23T03:22:52;8.60;94.00
7384;DHT22;3733;47.994;8.820;2023-03-23T03:25:19;8.60;94.00
7384;DHT22;3733;47.994;8.820;2023-03-23T03:27:46;8.60;94.10
7384;DHT22;3733;47.994;8.820;2023-03-23T03:30:17;8.50;94.00
7384;DHT22;3733;47.994;8.820;2023-03-23T03:32:48;8.60;94.00
7384;DHT22;3733;47.994;8.820;2023-03-23T03:35:16;8.50;93.40
7384;DHT22;3733;47.994;8.820;2023-03-23T03:37:43;8.50;94.10
7384;DHT22;3733;47.994;8.820;2023-03-23T03:40:14;8.50;94.30
7384;DHT22;3733;47.994;8.820;2023-03-23T03:42:43;8.50;94.40
7384;DHT22;3733;47.994;8.820;2023-03-23T03:45:12;8.50;94.40
7384;DHT22;3733;47.994;8.820;2023-03-23T03:47:38;8.50;94.50
7384;DHT22;3733;47.994;8.820;2023-03-23T03:50:04;8.40;94.70
7384;DHT22;3733;47.994;8.820;2023-03-23T03:52:31;8.40;95.60
7384;DHT22;3733;47.994;8.820;2023-03-23T03:54:57;8.40;96.60
7384;DHT22;3733;47.994;8.820;2023-03-23T03:57:23;8.40;97.60
7384;DHT22;3733;47.994;8.820;2023-03-23T03:59:49;8.40;98.40
7384;DHT22;3733;47.994;8.820;2023-03-23T04:02:16;8.30;97.60
7384;DHT22;3733;47.994;8.820;2023-03-23T04:04:46;8.30;97.60
7384;DHT22;3733;47.994;8.820;2023-03-23T04:07:12;8.30;97.30
7384;DHT22;3733;47.994;8.820;2023-03-23T04:09:39;8.30;97.40
7384;DHT22;3733;47.994;8.820;2023-03-23T04:12:05;8.30;97.40
7384;DHT22;3733;47.994;8.820;2023-03-23T04:14:31;8.30;96.80
7384;DHT22;3733;47.994;8.820;2023-03-23T04:16:56;8.30;97.10
7384;DHT22;3733;47.994;8.820;2023-03-23T04:19:26;8.30;97.60
7384;DHT22;3733;47.994;8.820;2023-03-23T04:21:54;8.30;97.30
7384;DHT22;3733;47.994;8.820;2023-03-23T04:24:20;8.40;97.80
7384;DHT22;3733;47.994;8.820;2023-03-23T04:26:47;8.30;97.80
7384;DHT22;3733;47.994;8.820;2023-03-23T04:29:13;8.40;98.20
7384;DHT22;3733;47.994;8.820;2023-03-23T04:31:39;8.30;98.30
7384;DHT22;3733;47.994;8.820;2023-03-23T04:34:05;8.40;98.50
7384;DHT22;3733;47.994;8.820;2023-03-23T04:36:31;8.40;99.50
7384;DHT22;3733;47.994;8.820;2023-03-23T04:38:59;8.30;99.00
7384;DHT22;3733;47.994;8.820;2023-03-23T04:41:26;8.30;99.30
7384;DHT22;3733;47.994;8.820;2023-03-23T04:43:52;8.30;99.20
7384;DHT22;3733;47.994;8.820;2023-03-23T04:46:22;8.30;99.10
7384;DHT22;3733;47.994;8.820;2023-03-23T04:48:48;8.30;99.30
7384;DHT22;3733;47.994;8.820;2023-03-23T04:51:13;8.30;99.30
7384;DHT22;3733;47.994;8.820;2023-03-23T04:53:40;8.30;99.90
7384;DHT22;3733;47.994;8.820;2023-03-23T04:56:06;8.30;99.90
7384;DHT22;3733;47.994;8.820;2023-03-23T04:58:32;8.30;99.90
7384;DHT22;3733;47.994;8.820;2023-03-23T05:01:00;8.30;99.90
7384;DHT22;3733;47.994;8.820;2023-03-23T05:03:26;8.30;99.90
7384;DHT22;3733;47.994;8.820;2023-03-23T05:05:54;8.30;99.90
7384;DHT22;3733;47.994;8.820;2023-03-23T05:08:21;8.30;99.90
7384;DHT22;3733;47.994;8.820;2023-03-23T05:10:57;8.40;99.90
7384;DHT22;3733;47.994;8.820;2023-03-23T05:13:23;8.40;99.90
7384;DHT22;3733;47.994;8.820;2023-03-23T05:15:49;8.30;99.90
7384;DHT22;3733;47.994;8.820;2023-03-23T05:18:15;8.30;99.90
7384;DHT22;3733;47.994;8.820;2023-03-23T05:20:42;8.40;99.90
7384;DHT22;3733;47.994;8.820;2023-03-23T05:23:10;8.30;99.90
7384;DHT22;3733;47.994;8.820;2023-03-23T05:25:36;8.30;99.90
7384;DHT22;3733;47.994;8.820;2023-03-23T05:28:11;8.40;99.90
7384;DHT22;3733;47.994;8.820;2023-03-23T05:30:38;8.30;99.90
7384;DHT22;3733;47.994;8.820;2023-03-23T05:33:05;8.40;99.90
7384;DHT22;3733;47.994;8.820;2023-03-23T05:35:31;8.40;99.90
7384;DHT22;3733;47.994;8.820;2023-03-23T05:37:57;8.40;99.90
7384;DHT22;3733;47.994;8.820;2023-03-23T05:40:23;8.40;99.90
7384;DHT22;3733;47.994;8.820;2023-03-23T05:42:51;8.50;99.90
7384;DHT22;3733;47.994;8.820;2023-03-23T05:45:17;8.50;99.90
7384;DHT22;3733;47.994;8.820;2023-03-23T05:47:43;8.50;99.90
7384;DHT22;3733;47.994;8.820;2023-03-23T05:50:09;8.60;99.90
7384;DHT22;3733;47.994;8.820;2023-03-23T05:52:36;8.60;99.90
7384;DHT22;3733;47.994;8.820;2023-03-23T05:55:02;8.60;99.90
7384;DHT22;3733;47.994;8.820;2023-03-23T05:57:29;8.70;99.90
7384;DHT22;3733;47.994;8.820;2023-03-23T05:59:55;8.70;99.90
7384;DHT22;3733;47.994;8.820;2023-03-23T06:02:23;8.60;99.90
7384;DHT22;3733;47.994;8.820;2023-03-23T06:04:50;8.60;99.90
7384;DHT22;3733;47.994;8.820;2023-03-23T06:07:16;8.60;99.90
7384;DHT22;3733;47.994;8.820;2023-03-23T06:09:42;8.70;99.90
7384;DHT22;3733;47.994;8.820;2023-03-23T06:12:08;8.70;99.90
7384;DHT22;3733;47.994;8.820;2023-03-23T06:14:35;8.70;99.90
7384;DHT22;3733;47.994;8.820;2023-03-23T06:17:02;8.70;99.70
7384;DHT22;3733;47.994;8.820;2023-03-23T06:19:27;8.70;99.60
7384;DHT22;3733;47.994;8.820;2023-03-23T06:21:56;8.70;99.70
7384;DHT22;3733;47.994;8.820;2023-03-23T06:24:22;8.80;99.80
7384;DHT22;3733;47.994;8.820;2023-03-23T06:26:47;8.80;99.90
7384;DHT22;3733;47.994;8.820;2023-03-23T06:29:14;8.90;99.90
7384;DHT22;3733;47.994;8.820;2023-03-23T06:31:43;8.90;99.90
7384;DHT22;3733;47.994;8.820;2023-03-23T06:34:10;8.90;99.90
7384;DHT22;3733;47.994;8.820;2023-03-23T06:36:37;8.90;99.90
7384;DHT22;3733;47.994;8.820;2023-03-23T06:39:04;8.90;99.90
7384;DHT22;3733;47.994;8.820;2023-03-23T06:41:31;9.00;99.90
7384;DHT22;3733;47.994;8.820;2023-03-23T06:43:58;9.00;99.90
7384;DHT22;3733;47.994;8.820;2023-03-23T06:46:24;9.00;99.90
7384;DHT22;3733;47.994;8.820;2023-03-23T06:48:50;9.10;99.00
7384;DHT22;3733;47.994;8.820;2023-03-23T06:51:16;9.30;98.30
7384;DHT22;3733;47.994;8.820;2023-03-23T06:53:42;9.30;97.80
7384;DHT22;3733;47.994;8.820;2023-03-23T06:56:08;9.50;96.80
7384;DHT22;3733;47.994;8.820;2023-03-23T06:58:34;9.50;95.20
7384;DHT22;3733;47.994;8.820;2023-03-23T07:01:00;9.60;93.80
7384;DHT22;3733;47.994;8.820;2023-03-23T07:03:26;9.60;92.80
7384;DHT22;3733;47.994;8.820;2023-03-23T07:05:53;9.70;93.60
7384;DHT22;3733;47.994;8.820;2023-03-23T07:08:19;9.80;93.30
7384;DHT22;3733;47.994;8.820;2023-03-23T07:10:46;9.90;93.30
7384;DHT22;3733;47.994;8.820;2023-03-23T07:13:11;10.00;92.80
7384;DHT22;3733;47.994;8.820;2023-03-23T07:15:38;10.10;92.50
7384;DHT22;3733;47.994;8.820;2023-03-23T07:18:04;10.20;90.90
7384;DHT22;3733;47.994;8.820;2023-03-23T07:20:30;10.30;90.30
7384;DHT22;3733;47.994;8.820;2023-03-23T07:22:56;10.40;89.30
7384;DHT22;3733;47.994;8.820;2023-03-23T07:25:21;10.50;88.40
7384;DHT22;3733;47.994;8.820;2023-03-23T07:27:47;10.60;85.80
7384;DHT22;3733;47.994;8.820;2023-03-23T07:30:13;10.70;84.50
7384;DHT22;3733;47.994;8.820;2023-03-23T07:32:40;10.80;83.00
7384;DHT22;3733;47.994;8.820;2023-03-23T07:35:06;10.90;80.30
7384;DHT22;3733;47.994;8.820;2023-03-23T07:37:32;11.00;78.10
7384;DHT22;3733;47.994;8.820;2023-03-23T07:39:58;11.10;75.00
7384;DHT22;3733;47.994;8.820;2023-03-23T07:42:23;11.20;73.00
7384;DHT22;3733;47.994;8.820;2023-03-23T07:44:49;11.30;71.60
7384;DHT22;3733;47.994;8.820;2023-03-23T07:47:15;11.30;70.70
7384;DHT22;3733;47.994;8.820;2023-03-23T07:49:43;11.30;70.30
7384;DHT22;3733;47.994;8.820;2023-03-23T07:52:08;11.40;70.40
7384;DHT22;3733;47.994;8.820;2023-03-23T07:54:36;11.40;70.30
7384;DHT22;3733;47.994;8.820;2023-03-23T07:57:02;11.50;70.30
7384;DHT22;3733;47.994;8.820;2023-03-23T07:59:28;11.60;70.00
7384;DHT22;3733;47.994;8.820;2023-03-23T08:01:54;11.70;69.80
7384;DHT22;3733;47.994;8.820;2023-03-23T08:04:19;11.70;69.90
7384;DHT22;3733;47.994;8.820;2023-03-23T08:06:45;11.80;70.00
7384;DHT22;3733;47.994;8.820;2023-03-23T08:09:11;11.90;70.00
7384;DHT22;3733;47.994;8.820;2023-03-23T08:11:37;12.00;68.60
7384;DHT22;3733;47.994;8.820;2023-03-23T08:14:04;12.00;67.60
7384;DHT22;3733;47.994;8.820;2023-03-23T08:16:31;12.20;67.20
7384;DHT22;3733;47.994;8.820;2023-03-23T08:18:57;12.30;65.50
7384;DHT22;3733;47.994;8.820;2023-03-23T08:21:23;12.40;64.00
7384;DHT22;3733;47.994;8.820;2023-03-23T08:23:49;12.50;63.40
7384;DHT22;3733;47.994;8.820;2023-03-23T08:26:14;12.60;63.50
7384;DHT22;3733;47.994;8.820;2023-03-23T08:28:40;12.70;62.90
7384;DHT22;3733;47.994;8.820;2023-03-23T08:31:10;12.70;61.10
7384;DHT22;3733;47.994;8.820;2023-03-23T08:33:37;12.80;60.80
7384;DHT22;3733;47.994;8.820;2023-03-23T08:36:03;12.90;60.60
7384;DHT22;3733;47.994;8.820;2023-03-23T08:38:30;13.00;59.60
7384;DHT22;3733;47.994;8.820;2023-03-23T08:41:00;13.10;58.80
7384;DHT22;3733;47.994;8.820;2023-03-23T08:43:26;13.30;59.10
7384;DHT22;3733;47.994;8.820;2023-03-23T08:45:53;13.40;59.00
7384;DHT22;3733;47.994;8.820;2023-03-23T08:48:19;13.60;58.80
7384;DHT22;3733;47.994;8.820;2023-03-23T08:50:45;13.70;58.00
7384;DHT22;3733;47.994;8.820;2023-03-23T08:53:11;13.80;57.80
7384;DHT22;3733;47.994;8.820;2023-03-23T08:55:37;13.90;57.00
7384;DHT22;3733;47.994;8.820;2023-03-23T08:58:03;14.00;56.90
7384;DHT22;3733;47.994;8.820;2023-03-23T09:00:30;14.00;56.50
7384;DHT22;3733;47.994;8.820;2023-03-23T09:02:56;14.10;56.40
7384;DHT22;3733;47.994;8.820;2023-03-23T09:05:24;14.20;55.80
7384;DHT22;3733;47.994;8.820;2023-03-23T09:07:52;14.20;55.50
7384;DHT22;3733;47.994;8.820;2023-03-23T09:10:19;14.30;54.70
7384;DHT22;3733;47.994;8.820;2023-03-23T09:12:46;14.30;55.20
7384;DHT22;3733;47.994;8.820;2023-03-23T09:15:15;14.40;55.10
7384;DHT22;3733;47.994;8.820;2023-03-23T09:17:46;14.40;55.10
7384;DHT22;3733;47.994;8.820;2023-03-23T09:20:14;14.40;54.50
7384;DHT22;3733;47.994;8.820;2023-03-23T09:22:44;14.40;54.70
7384;DHT22;3733;47.994;8.820;2023-03-23T09:25:13;14.40;55.40
7384;DHT22;3733;47.994;8.820;2023-03-23T09:27:41;14.40;54.80
7384;DHT22;3733;47.994;8.820;2023-03-23T09:30:11;14.50;54.90
7384;DHT22;3733;47.994;8.820;2023-03-23T09:32:38;14.50;54.80
7384;DHT22;3733;47.994;8.820;2023-03-23T09:35:06;14.60;55.00
7384;DHT22;3733;47.994;8.820;2023-03-23T09:37:37;14.70;54.90
7384;DHT22;3733;47.994;8.820;2023-03-23T09:40:05;14.70;54.70
7384;DHT22;3733;47.994;8.820;2023-03-23T09:42:41;14.80;54.30
7384;DHT22;3733;47.994;8.820;2023-03-23T09:45:33;14.90;54.10
7384;DHT22;3733;47.994;8.820;2023-03-23T09:51:11;14.90;54.20
7384;DHT22;3733;47.994;8.820;2023-03-23T09:53:45;14.90;53.90
7384;DHT22;3733;47.994;8.820;2023-03-23T09:56:14;15.00;54.00
7384;DHT22;3733;47.994;8.820;2023-03-23T09:58:51;15.00;53.80
7384;DHT22;3733;47.994;8.820;2023-03-23T10:01:41;15.00;53.70
7384;DHT22;3733;47.994;8.820;2023-03-23T10:07:30;14.90;53.80
7384;DHT22;3733;47.994;8.820;2023-03-23T10:09:58;14.90;54.30
7384;DHT22;3733;47.994;8.820;2023-03-23T10:18:00;15.00;54.80
7384;DHT22;3733;47.994;8.820;2023-03-23T10:25:51;15.20;56.10
7384;DHT22;3733;47.994;8.820;2023-03-23T10:28:32;15.30;56.40
7384;DHT22;3733;47.994;8.820;2023-03-23T10:31:00;15.40;55.00
7384;DHT22;3733;47.994;8.820;2023-03-23T10:33:41;15.30;54.50
7384;DHT22;3733;47.994;8.820;2023-03-23T10:36:28;15.30;54.50
7384;DHT22;3733;47.994;8.820;2023-03-23T10:39:10;15.30;55.20
7384;DHT22;3733;47.994;8.820;2023-03-23T10:41:37;15.30;55.00
7384;DHT22;3733;47.994;8.820;2023-03-23T10:44:29;15.20;55.10
7384;DHT22;3733;47.994;8.820;2023-03-23T10:47:04;15.10;55.60
7384;DHT22;3733;47.994;8.820;2023-03-23T10:52:40;15.10;56.70
7384;DHT22;3733;47.994;8.820;2023-03-23T10:57:36;15.00;56.80
7384;DHT22;3733;47.994;8.820;2023-03-23T11:02:41;15.00;57.10
7384;DHT22;3733;47.994;8.820;2023-03-23T11:07:57;15.10;56.40
7384;DHT22;3733;47.994;8.820;2023-03-23T11:10:27;15.10;56.40
7384;DHT22;3733;47.994;8.820;2023-03-23T11:12:57;15.20;56.00
7384;DHT22;3733;47.994;8.820;2023-03-23T11:18:06;15.30;54.50
7384;DHT22;3733;47.994;8.820;2023-03-23T11:20:44;15.50;54.40
7384;DHT22;3733;47.994;8.820;2023-03-23T11:23:22;15.60;53.50
7384;DHT22;3733;47.994;8.820;2023-03-23T11:28:19;15.90;53.30
7384;DHT22;3733;47.994;8.820;2023-03-23T11:30:45;16.00;53.10
7384;DHT22;3733;47.994;8.820;2023-03-23T11:33:11;16.10;52.10
7384;DHT22;3733;47.994;8.820;2023-03-23T11:35:43;16.20;51.70
7384;DHT22;3733;47.994;8.820;2023-03-23T11:38:17;16.40;51.80
7384;DHT22;3733;47.994;8.820;2023-03-23T11:40:48;16.40;51.20
7384;DHT22;3733;47.994;8.820;2023-03-23T11:43:19;16.50;51.20
7384;DHT22;3733;47.994;8.820;2023-03-23T11:48:39;16.40;50.80
7384;DHT22;3733;47.994;8.820;2023-03-23T11:51:19;16.30;50.20
7384;DHT22;3733;47.994;8.820;2023-03-23T11:54:13;16.20;50.60
7384;DHT22;3733;47.994;8.820;2023-03-23T11:56:43;16.10;50.30
7384;DHT22;3733;47.994;8.820;2023-03-23T11:59:12;16.10;50.50
7384;DHT22;3733;47.994;8.820;2023-03-23T12:02:03;16.10;50.60
7384;DHT22;3733;47.994;8.820;2023-03-23T12:05:05;16.10;50.60
7384;DHT22;3733;47.994;8.820;2023-03-23T12:10:40;16.30;50.10
7384;DHT22;3733;47.994;8.820;2023-03-23T12:16:14;16.20;50.20
7384;DHT22;3733;47.994;8.820;2023-03-23T12:18:53;16.10;50.40
7384;DHT22;3733;47.994;8.820;2023-03-23T12:38:30;16.40;50.60
7384;DHT22;3733;47.994;8.820;2023-03-23T12:41:09;16.30;49.50
7384;DHT22;3733;47.994;8.820;2023-03-23T12:44:10;16.30;50.00
7384;DHT22;3733;47.994;8.820;2023-03-23T12:52:54;16.30;48.60
7384;DHT22;3733;47.994;8.820;2023-03-23T12:55:39;16.30;49.00
7384;DHT22;3733;47.994;8.820;2023-03-23T12:58:15;16.20;49.10
7384;DHT22;3733;47.994;8.820;2023-03-23T13:00:51;16.10;49.50
7384;DHT22;3733;47.994;8.820;2023-03-23T13:08:53;15.90;51.50
7384;DHT22;3733;47.994;8.820;2023-03-23T13:11:43;15.80;52.10
7384;DHT22;3733;47.994;8.820;2023-03-23T13:26:08;15.60;54.00
7384;DHT22;3733;47.994;8.820;2023-03-23T13:31:36;15.60;53.60
7384;DHT22;3733;47.994;8.820;2023-03-23T13:34:22;15.60;53.50
7384;DHT22;3733;47.994;8.820;2023-03-23T13:50:02;15.30;53.00
7384;DHT22;3733;47.994;8.820;2023-03-23T14:03:02;15.20;54.50
7384;DHT22;3733;47.994;8.820;2023-03-23T14:05:34;15.20;53.80
7384;DHT22;3733;47.994;8.820;2023-03-23T14:08:11;15.20;54.40
7384;DHT22;3733;47.994;8.820;2023-03-23T14:10:42;15.20;54.70
7384;DHT22;3733;47.994;8.820;2023-03-23T14:16:04;15.20;55.30
7384;DHT22;3733;47.994;8.820;2023-03-23T14:18:36;15.20;55.20
7384;DHT22;3733;47.994;8.820;2023-03-23T14:21:03;15.20;54.60
7384;DHT22;3733;47.994;8.820;2023-03-23T14:23:33;15.20;55.00
7384;DHT22;3733;47.994;8.820;2023-03-23T14:26:02;15.20;54.90
7384;DHT22;3733;47.994;8.820;2023-03-23T14:28:39;15.20;54.50
7384;DHT22;3733;47.994;8.820;2023-03-23T14:31:25;15.20;54.90
7384;DHT22;3733;47.994;8.820;2023-03-23T14:33:53;15.20;54.90
7384;DHT22;3733;47.994;8.820;2023-03-23T14:36:21;15.20;55.20
7384;DHT22;3733;47.994;8.820;2023-03-23T14:41:41;15.20;54.80
7384;DHT22;3733;47.994;8.820;2023-03-23T14:44:14;15.20;55.10
7384;DHT22;3733;47.994;8.820;2023-03-23T14:46:41;15.20;55.50
7384;DHT22;3733;47.994;8.820;2023-03-23T14:49:14;15.30;55.80
7384;DHT22;3733;47.994;8.820;2023-03-23T14:51:53;15.30;55.30
7384;DHT22;3733;47.994;8.820;2023-03-23T14:54:26;15.30;54.60
7384;DHT22;3733;47.994;8.820;2023-03-23T14:56:53;15.30;54.70
7384;DHT22;3733;47.994;8.820;2023-03-23T14:59:18;15.30;54.50
7384;DHT22;3733;47.994;8.820;2023-03-23T15:01:47;15.20;54.40
7384;DHT22;3733;47.994;8.820;2023-03-23T15:04:24;15.20;54.40
7384;DHT22;3733;47.994;8.820;2023-03-23T15:06:55;15.20;54.50
7384;DHT22;3733;47.994;8.820;2023-03-23T15:09:23;15.20;54.50
7384;DHT22;3733;47.994;8.820;2023-03-23T15:14:26;15.10;54.10
7384;DHT22;3733;47.994;8.820;2023-03-23T15:16:54;15.10;54.00
7384;DHT22;3733;47.994;8.820;2023-03-23T15:19:28;15.10;54.30
7384;DHT22;3733;47.994;8.820;2023-03-23T15:22:13;15.10;55.10
7384;DHT22;3733;47.994;8.820;2023-03-23T15:24:41;15.00;54.80
7384;DHT22;3733;47.994;8.820;2023-03-23T15:27:14;15.00;54.80
7384;DHT22;3733;47.994;8.820;2023-03-23T15:29:58;15.00;55.00
7384;DHT22;3733;47.994;8.820;2023-03-23T15:32:31;15.00;55.00
7384;DHT22;3733;47.994;8.820;2023-03-23T15:35:10;15.00;55.40
7384;DHT22;3733;47.994;8.820;2023-03-23T15:37:41;14.90;55.20
7384;DHT22;3733;47.994;8.820;2023-03-23T15:40:19;14.90;55.30
7384;DHT22;3733;47.994;8.820;2023-03-23T15:42:46;14.90;55.40
7384;DHT22;3733;47.994;8.820;2023-03-23T15:50:17;14.80;55.60
7384;DHT22;3733;47.994;8.820;2023-03-23T15:52:44;14.80;55.60
7384;DHT22;3733;47.994;8.820;2023-03-23T15:55:26;14.80;55.60
7384;DHT22;3733;47.994;8.820;2023-03-23T15:57:53;14.70;55.70
7384;DHT22;3733;47.994;8.820;2023-03-23T16:00:21;14.70;55.70
7384;DHT22;3733;47.994;8.820;2023-03-23T16:02:49;14.70;55.60
7384;DHT22;3733;47.994;8.820;2023-03-23T16:05:17;14.70;55.50
7384;DHT22;3733;47.994;8.820;2023-03-23T16:07:42;14.70;55.60
7384;DHT22;3733;47.994;8.820;2023-03-23T16:10:18;14.60;55.50
7384;DHT22;3733;47.994;8.820;2023-03-23T16:12:44;14.60;55.50
7384;DHT22;3733;47.994;8.820;2023-03-23T16:15:12;14.60;55.50
7384;DHT22;3733;47.994;8.820;2023-03-23T16:17:38;14.60;55.80
7384;DHT22;3733;47.994;8.820;2023-03-23T16:20:12;14.50;55.70
7384;DHT22;3733;47.994;8.820;2023-03-23T16:22:38;14.50;55.60
7384;DHT22;3733;47.994;8.820;2023-03-23T16:25:04;14.50;55.80
7384;DHT22;3733;47.994;8.820;2023-03-23T16:27:30;14.50;56.00
7384;DHT22;3733;47.994;8.820;2023-03-23T16:29:55;14.40;56.10
7384;DHT22;3733;47.994;8.820;2023-03-23T16:32:23;14.40;56.20
7384;DHT22;3733;47.994;8.820;2023-03-23T16:34:48;14.40;56.10
7384;DHT22;3733;47.994;8.820;2023-03-23T16:37:14;14.30;56.30
7384;DHT22;3733;47.994;8.820;2023-03-23T16:39:41;14.30;56.60
7384;DHT22;3733;47.994;8.820;2023-03-23T16:42:06;14.30;56.70
7384;DHT22;3733;47.994;8.820;2023-03-23T16:44:32;14.20;56.90
7384;DHT22;3733;47.994;8.820;2023-03-23T16:46:57;14.20;57.30
7384;DHT22;3733;47.994;8.820;2023-03-23T16:49:23;14.20;57.50
7384;DHT22;3733;47.994;8.820;2023-03-23T16:51:48;14.10;57.50
7384;DHT22;3733;47.994;8.820;2023-03-23T16:54:14;14.10;57.70
7384;DHT22;3733;47.994;8.820;2023-03-23T16:56:40;14.10;58.00
7384;DHT22;3733;47.994;8.820;2023-03-23T16:59:05;14.00;58.00
7384;DHT22;3733;47.994;8.820;2023-03-23T17:01:31;14.00;58.20
7384;DHT22;3733;47.994;8.820;2023-03-23T17:03:57;14.00;58.40
7384;DHT22;3733;47.994;8.820;2023-03-23T17:06:22;13.90;58.40
7384;DHT22;3733;47.994;8.820;2023-03-23T17:08:48;13.90;58.70
7384;DHT22;3733;47.994;8.820;2023-03-23T17:11:13;13.90;58.80
7384;DHT22;3733;47.994;8.820;2023-03-23T17:13:39;13.90;58.90
7384;DHT22;3733;47.994;8.820;2023-03-23T17:16:06;13.90;59.10
7384;DHT22;3733;47.994;8.820;2023-03-23T17:18:32;13.80;59.30
7384;DHT22;3733;47.994;8.820;2023-03-23T17:20:58;13.80;59.30
7384;DHT22;3733;47.994;8.820;2023-03-23T17:23:23;13.80;59.50
7384;DHT22;3733;47.994;8.820;2023-03-23T17:25:49;13.70;59.60
7384;DHT22;3733;47.994;8.820;2023-03-23T17:28:15;13.70;59.70
7384;DHT22;3733;47.994;8.820;2023-03-23T17:30:42;13.70;59.90
7384;DHT22;3733;47.994;8.820;2023-03-23T17:33:09;13.60;59.80
7384;DHT22;3733;47.994;8.820;2023-03-23T17:35:35;13.60;60.00
7384;DHT22;3733;47.994;8.820;2023-03-23T17:38:00;13.60;60.30
7384;DHT22;3733;47.994;8.820;2023-03-23T17:40:26;13.60;60.30
7384;DHT22;3733;47.994;8.820;2023-03-23T17:42:52;13.50;60.40
7384;DHT22;3733;47.994;8.820;2023-03-23T17:45:17;13.50;60.60
7384;DHT22;3733;47.994;8.820;2023-03-23T17:47:43;13.50;60.60
7384;DHT22;3733;47.994;8.820;2023-03-23T17:50:10;13.50;60.80
7384;DHT22;3733;47.994;8.820;2023-03-23T17:52:36;13.40;61.10
7384;DHT22;3733;47.994;8.820;2023-03-23T17:55:02;13.40;61.40
7384;DHT22;3733;47.994;8.820;2023-03-23T17:57:28;13.40;61.50
7384;DHT22;3733;47.994;8.820;2023-03-23T17:59:53;13.40;61.70
7384;DHT22;3733;47.994;8.820;2023-03-23T18:02:19;13.40;61.70
7384;DHT22;3733;47.994;8.820;2023-03-23T18:04:45;13.30;61.60
7384;DHT22;3733;47.994;8.820;2023-03-23T18:07:12;13.30;61.60
7384;DHT22;3733;47.994;8.820;2023-03-23T18:09:38;13.30;61.60
7384;DHT22;3733;47.994;8.820;2023-03-23T18:12:04;13.30;61.70
7384;DHT22;3733;47.994;8.820;2023-03-23T18:14:29;13.30;61.60
7384;DHT22;3733;47.994;8.820;2023-03-23T18:16:55;13.20;61.60
7384;DHT22;3733;47.994;8.820;2023-03-23T18:19:21;13.20;61.80
7384;DHT22;3733;47.994;8.820;2023-03-23T18:21:46;13.20;61.80
7384;DHT22;3733;47.994;8.820;2023-03-23T18:24:12;13.30;62.00
7384;DHT22;3733;47.994;8.820;2023-03-23T18:26:38;13.20;62.00
7384;DHT22;3733;47.994;8.820;2023-03-23T18:29:04;13.20;62.00
7384;DHT22;3733;47.994;8.820;2023-03-23T18:31:30;13.20;62.10
7384;DHT22;3733;47.994;8.820;2023-03-23T18:33:57;13.20;62.30
7384;DHT22;3733;47.994;8.820;2023-03-23T18:36:24;13.20;62.60
7384;DHT22;3733;47.994;8.820;2023-03-23T18:38:54;13.20;62.80
7384;DHT22;3733;47.994;8.820;2023-03-23T18:41:20;13.20;62.80
7384;DHT22;3733;47.994;8.820;2023-03-23T18:43:46;13.20;62.70
7384;DHT22;3733;47.994;8.820;2023-03-23T18:46:12;13.10;62.60